Monte Alto, Brazil
Current Conditions -  °F | °C
As of 2:00 PM on Thursday 30 Oct 2014 (Local Time) from SBRP Reporting Station
Scattered Clouds Scattered Clouds  
Wind Chill: 95°   Ceiling: Unl
Heat Index: 95°   Visibility: 6mi
Dew Point: 48°   Wind: 10mph
Humidity: 20%   Direction: 290°WNW
Pressure: 29.83"   Gusts: NA
Location:  21.26°S, 48.5°W
Report Text: SBRP 301600Z 29009KT 230V350 9999 SCT040 35/09 Q1010
Loading
Personal Weather Stations






























Interactive Weather Map
Tropical Storm Tracking
New forecast layout! Learn more

10-Day Weather Forecast

Advertisements
Track Severe Weather on mobile